createdAt,value
2023-03-15T00:03:55.589Z,90.67
2023-03-15T00:08:57.028Z,90.34
2023-03-15T00:13:59.442Z,89.41
2023-03-15T00:19:00.944Z,89.47
2023-03-15T00:24:03.145Z,89.49
2023-03-15T00:29:05.193Z,89.84
2023-03-15T00:34:06.636Z,91.00
2023-03-15T00:39:08.071Z,90.07
2023-03-15T00:44:09.473Z,90.35
2023-03-15T00:49:11.827Z,89.84
2023-03-15T00:54:13.786Z,89.85
2023-03-15T00:59:15.379Z,90.09
2023-03-15T01:04:16.823Z,90.46
2023-03-15T01:09:18.287Z,90.36
2023-03-15T01:14:20.071Z,90.47
2023-03-15T01:19:21.685Z,90.96
2023-03-15T01:24:23.158Z,90.72
2023-03-15T01:29:25.096Z,90.68
2023-03-15T01:34:26.744Z,90.54
2023-03-15T01:39:29.042Z,90.24
2023-03-15T01:44:51.035Z,90.00
2023-03-15T01:50:05.093Z,89.15
2023-03-15T01:55:14.862Z,89.40
2023-03-15T02:00:28.802Z,89.56
2023-03-15T02:05:46.077Z,89.67
2023-03-15T02:10:54.759Z,89.88
2023-03-15T02:15:59.674Z,90.76
2023-03-15T02:21:20.313Z,90.50
2023-03-15T02:26:55.643Z,90.61
2023-03-15T02:31:58.087Z,90.26
2023-03-15T02:37:00.322Z,90.17
2023-03-15T02:42:02.301Z,90.18
2023-03-15T02:47:20.306Z,90.25
2023-03-15T02:52:22.922Z,90.15
2023-03-15T02:57:24.460Z,89.69
2023-03-15T03:02:28.776Z,90.15
2023-03-15T03:07:30.871Z,89.35
2023-03-15T03:12:37.655Z,89.52
2023-03-15T03:17:39.205Z,89.31
2023-03-15T03:22:41.977Z,89.47
2023-03-15T03:27:43.928Z,89.23
2023-03-15T03:32:47.003Z,88.97
2023-03-15T03:37:48.547Z,89.12
2023-03-15T03:42:55.066Z,88.87
2023-03-15T03:47:57.764Z,88.27
2023-03-15T03:52:59.666Z,87.86
2023-03-15T03:58:06.185Z,87.83
2023-03-15T04:03:27.926Z,87.80
2023-03-15T04:08:37.792Z,88.28
2023-03-15T04:13:40.142Z,88.25
2023-03-15T04:18:41.710Z,88.78
2023-03-15T04:23:43.375Z,89.05
2023-03-15T04:28:57.483Z,88.90
2023-03-15T04:34:15.502Z,89.13
2023-03-15T04:39:46.007Z,89.07
2023-03-15T04:45:06.335Z,89.32
2023-03-15T04:50:26.299Z,89.23
2023-03-15T04:55:50.879Z,89.70
2023-03-15T05:00:59.792Z,89.33
2023-03-15T05:06:18.349Z,89.05
2023-03-15T05:11:31.879Z,89.13
2023-03-15T05:17:08.842Z,88.94
2023-03-15T05:22:28.078Z,89.36
2023-03-15T05:27:58.843Z,89.31
2023-03-15T05:33:36.011Z,89.52
2023-03-15T05:38:55.205Z,89.67
2023-03-15T05:44:19.528Z,89.07
2023-03-15T05:49:39.419Z,89.57
2023-03-15T05:55:09.185Z,89.78
2023-03-15T06:00:21.732Z,89.58
2023-03-15T06:05:28.367Z,90.13
2023-03-15T06:10:31.103Z,89.82
2023-03-15T06:15:37.281Z,89.98
2023-03-15T06:20:41.010Z,90.58
2023-03-15T06:25:47.003Z,90.46
2023-03-15T06:30:49.442Z,91.13
2023-03-15T06:35:51.995Z,90.61
2023-03-15T06:40:53.578Z,91.26
2023-03-15T06:45:56.594Z,90.86
2023-03-15T06:50:58.927Z,90.98
2023-03-15T06:56:00.566Z,92.09
2023-03-15T07:01:01.996Z,92.01
2023-03-15T07:06:03.779Z,91.57
2023-03-15T07:11:06.276Z,92.04
2023-03-15T07:16:07.755Z,93.08
2023-03-15T07:21:09.238Z,93.50
2023-03-15T07:26:10.703Z,93.15
2023-03-15T07:31:12.654Z,92.82
2023-03-15T07:36:14.163Z,92.66
2023-03-15T07:41:15.587Z,91.69
2023-03-15T07:46:28.770Z,92.84
2023-03-15T07:51:30.354Z,93.75
2023-03-15T07:56:31.780Z,94.14
2023-03-15T08:01:33.422Z,94.20
2023-03-15T08:06:34.903Z,94.64
2023-03-15T08:11:37.276Z,94.48
2023-03-15T08:16:38.993Z,95.06
2023-03-15T08:21:45.327Z,93.86
2023-03-15T08:26:47.443Z,93.90
2023-03-15T08:31:49.121Z,94.39
2023-03-15T08:36:51.061Z,92.79
2023-03-15T08:41:52.628Z,93.64
2023-03-15T08:46:54.050Z,92.91
2023-03-15T08:51:55.536Z,92.40
2023-03-15T08:56:57.051Z,85.57
2023-03-15T09:02:00.137Z,88.62
2023-03-15T09:07:01.639Z,90.18
2023-03-15T09:12:03.320Z,92.71
2023-03-15T09:17:04.896Z,95.01
2023-03-15T09:22:16.319Z,97.57
2023-03-15T09:27:24.994Z,97.47
2023-03-15T09:32:26.700Z,97.52
2023-03-15T09:37:28.705Z,97.56
2023-03-15T09:43:13.879Z,97.62
2023-03-15T09:48:21.335Z,96.81
2023-03-15T09:53:28.831Z,96.28
2023-03-15T09:58:32.817Z,95.33
2023-03-15T10:03:43.938Z,95.36
2023-03-15T10:08:51.343Z,95.71
2023-03-15T10:14:17.878Z,95.64
2023-03-15T10:19:45.846Z,95.64
2023-03-15T10:24:56.805Z,96.66
2023-03-15T10:29:59.194Z,94.56
2023-03-15T10:35:01.641Z,95.07
2023-03-15T10:40:07.705Z,95.16
2023-03-15T10:45:20.852Z,95.29
2023-03-15T10:50:26.631Z,96.36
2023-03-15T10:55:36.912Z,94.82
2023-03-15T11:00:38.392Z,94.25
2023-03-15T11:05:46.918Z,94.10
2023-03-15T11:10:57.034Z,94.52
2023-03-15T11:16:04.880Z,93.34
2023-03-15T11:21:11.852Z,92.96
2023-03-15T11:26:32.592Z,93.35
2023-03-15T11:31:35.822Z,93.14
2023-03-15T11:36:41.245Z,93.50
2023-03-15T11:41:52.579Z,94.12
2023-03-15T11:47:08.047Z,94.33
2023-03-15T11:52:10.689Z,94.28
2023-03-15T11:57:40.344Z,95.18
2023-03-15T12:02:54.324Z,95.07
2023-03-15T12:08:17.130Z,95.30
2023-03-15T12:13:27.775Z,95.64
2023-03-15T12:18:45.749Z,94.32
2023-03-15T12:23:57.645Z,92.79
2023-03-15T12:28:59.035Z,92.55
2023-03-15T12:34:04.244Z,92.77
2023-03-15T12:39:14.730Z,95.20
2023-03-15T12:44:25.760Z,95.67
2023-03-15T12:49:27.120Z,95.94
2023-03-15T12:54:41.242Z,94.69
2023-03-15T12:59:54.879Z,95.01
2023-03-15T13:05:16.546Z,94.76
2023-03-15T13:10:24.366Z,94.89
2023-03-15T13:15:33.877Z,94.53
2023-03-15T13:20:41.355Z,97.54
2023-03-15T13:25:59.421Z,100.00
2023-03-15T13:31:01.002Z,100.00
2023-03-15T13:36:06.591Z,94.32
2023-03-15T13:41:23.365Z,91.83
2023-03-15T13:46:29.283Z,97.67
2023-03-15T13:51:37.193Z,93.20
2023-03-15T13:57:16.229Z,89.42
2023-03-15T14:02:20.843Z,92.01
2023-03-15T14:07:36.445Z,91.67
2023-03-15T14:12:37.953Z,93.36
2023-03-15T14:17:53.650Z,94.61
2023-03-15T14:23:00.761Z,95.63
2023-03-15T14:28:04.531Z,94.36
2023-03-15T14:33:09.645Z,93.23
2023-03-15T14:38:19.684Z,92.76
2023-03-15T14:43:21.188Z,92.02
2023-03-15T14:48:28.576Z,92.05
2023-03-15T14:53:35.675Z,91.25
2023-03-15T14:58:37.254Z,90.24
2023-03-15T15:03:46.606Z,88.97
2023-03-15T15:08:49.388Z,89.15
2023-03-15T15:13:50.851Z,88.24
2023-03-15T15:18:52.423Z,88.89
2023-03-15T15:23:58.951Z,90.20
2023-03-15T15:29:01.079Z,90.32
2023-03-15T15:34:02.660Z,89.41
2023-03-15T15:39:11.051Z,88.73
2023-03-15T15:44:16.785Z,87.95
2023-03-15T15:49:19.347Z,88.82
2023-03-15T15:54:26.007Z,88.70
2023-03-15T15:59:28.048Z,86.68
2023-03-15T16:04:30.079Z,87.17
2023-03-15T16:09:35.901Z,87.92
2023-03-15T16:14:37.311Z,88.28
2023-03-15T16:19:38.758Z,88.77
2023-03-15T16:24:44.040Z,88.57
2023-03-15T16:29:47.534Z,88.89
2023-03-15T16:34:52.198Z,88.29
2023-03-15T16:39:57.499Z,88.63
2023-03-15T16:44:58.986Z,88.25
2023-03-15T16:50:00.492Z,88.02
2023-03-15T16:55:02.752Z,87.48
2023-03-15T17:00:11.510Z,88.54
2023-03-15T17:05:17.490Z,88.43
2023-03-15T17:10:27.268Z,87.32
2023-03-15T17:15:29.617Z,87.50
2023-03-15T17:20:31.377Z,88.12
2023-03-15T17:25:34.127Z,87.71
2023-03-15T17:30:37.212Z,87.97
2023-03-15T17:35:41.521Z,88.75
2023-03-15T17:40:43.237Z,87.85
2023-03-15T17:45:44.749Z,88.00
2023-03-15T17:50:46.277Z,87.85
2023-03-15T17:55:47.935Z,87.84
2023-03-15T18:00:50.895Z,88.39
2023-03-15T18:05:52.607Z,88.36
2023-03-15T18:10:54.439Z,89.16
2023-03-15T18:15:55.872Z,89.07
2023-03-15T18:20:57.322Z,88.77
2023-03-15T18:25:58.812Z,88.56
2023-03-15T18:31:00.534Z,88.85
2023-03-15T18:36:02.008Z,88.60
2023-03-15T18:41:04.338Z,88.44
2023-03-15T18:46:05.916Z,88.36
2023-03-15T18:51:12.019Z,86.89
2023-03-15T18:56:19.349Z,87.09
2023-03-15T19:01:22.705Z,87.04
2023-03-15T19:06:24.307Z,86.69
2023-03-15T19:11:26.864Z,86.95
2023-03-15T19:16:30.701Z,87.30
2023-03-15T19:21:32.225Z,87.35
2023-03-15T19:26:33.727Z,87.55
2023-03-15T19:31:35.150Z,87.98
2023-03-15T19:36:36.589Z,88.38
2023-03-15T19:41:38.486Z,88.56
2023-03-15T19:46:40.258Z,88.37
2023-03-15T19:51:41.743Z,88.11
2023-03-15T19:56:45.439Z,88.15
2023-03-15T20:01:46.872Z,88.05
2023-03-15T20:06:48.339Z,88.64
2023-03-15T20:11:49.810Z,88.81
2023-03-15T20:16:51.282Z,88.97
2023-03-15T20:21:52.957Z,88.79
2023-03-15T20:26:54.491Z,88.12
2023-03-15T20:31:55.967Z,88.34
2023-03-15T20:36:58.222Z,88.09
2023-03-15T20:41:59.678Z,87.49
2023-03-15T20:47:01.178Z,87.59
2023-03-15T20:52:03.366Z,88.29
2023-03-15T20:57:05.081Z,88.10
2023-03-15T21:02:06.940Z,88.38
2023-03-15T21:07:08.400Z,88.37
2023-03-15T21:12:09.927Z,88.71
2023-03-15T21:17:12.202Z,89.06
2023-03-15T21:22:13.647Z,88.66
2023-03-15T21:27:16.498Z,88.24
2023-03-15T21:32:18.041Z,88.28
2023-03-15T21:37:19.522Z,88.90
2023-03-15T21:42:21.031Z,88.65
2023-03-15T21:47:22.505Z,88.46
2023-03-15T21:52:26.073Z,87.91
2023-03-15T21:57:27.629Z,87.94
2023-03-15T22:02:29.044Z,87.73
2023-03-15T22:07:30.954Z,88.10
2023-03-15T22:12:32.448Z,87.59
2023-03-15T22:17:34.902Z,87.90
2023-03-15T22:22:36.562Z,87.71
2023-03-15T22:27:38.067Z,87.39
2023-03-15T22:32:44.037Z,87.32
2023-03-15T22:37:45.763Z,86.85
2023-03-15T22:42:49.471Z,86.88
2023-03-15T22:47:51.149Z,87.89
2023-03-15T22:52:52.644Z,88.36
2023-03-15T22:57:54.108Z,88.28
2023-03-15T23:02:55.542Z,88.31
2023-03-15T23:07:56.959Z,88.30
2023-03-15T23:12:58.927Z,88.37
2023-03-15T23:18:01.691Z,88.79
2023-03-15T23:23:03.170Z,88.23
2023-03-15T23:28:05.446Z,88.36
2023-03-15T23:33:08.588Z,88.41
2023-03-15T23:38:10.170Z,87.82
2023-03-15T23:43:12.226Z,88.16
2023-03-15T23:48:13.667Z,87.91
2023-03-15T23:53:15.085Z,88.11
2023-03-15T23:58:16.500Z,88.12
